sensor_id;sensor_type;location;lat;lon;timestamp;pressure;altitude;pressure_sealevel;temperature;humidity
42111;BME280;27766;52.174;5.456;2023-01-28T00:01:58;102926.31;;;1.69;100.00
42111;BME280;27766;52.174;5.456;2023-01-28T00:04:25;102929.16;;;1.72;100.00
42111;BME280;27766;52.174;5.456;2023-01-28T00:06:53;102919.41;;;1.68;100.00
42111;BME280;27766;52.174;5.456;2023-01-28T00:09:20;102930.91;;;1.73;100.00
42111;BME280;27766;52.174;5.456;2023-01-28T00:11:47;102934.50;;;1.75;100.00
42111;BME280;27766;52.174;5.456;2023-01-28T00:14:14;102925.44;;;1.68;100.00
42111;BME280;27766;52.174;5.456;2023-01-28T00:16:41;102942.91;;;1.74;100.00
42111;BME280;27766;52.174;5.456;2023-01-28T00:19:09;102944.72;;;1.75;100.00
42111;BME280;27766;52.174;5.456;2023-01-28T00:21:36;102940.13;;;1.71;100.00
42111;BME280;27766;52.174;5.456;2023-01-28T00:24:03;102938.44;;;1.71;100.00
42111;BME280;27766;52.174;5.456;2023-01-28T00:26:33;102932.47;;;1.71;100.00
42111;BME280;27766;52.174;5.456;2023-01-28T00:29:00;102927.59;;;1.74;100.00
42111;BME280;27766;52.174;5.456;2023-01-28T00:31:27;102936.66;;;1.70;100.00
42111;BME280;27766;52.174;5.456;2023-01-28T00:33:55;102929.16;;;1.72;100.00
42111;BME280;27766;52.174;5.456;2023-01-28T00:36:24;102935.91;;;1.71;100.00
42111;BME280;27766;52.174;5.456;2023-01-28T00:38:57;102931.13;;;1.66;100.00
42111;BME280;27766;52.174;5.456;2023-01-28T00:41:28;102929.63;;;1.68;100.00
42111;BME280;27766;52.174;5.456;2023-01-28T00:43:56;102924.09;;;1.63;100.00
42111;BME280;27766;52.174;5.456;2023-01-28T00:46:24;102936.13;;;1.64;100.00
42111;BME280;27766;52.174;5.456;2023-01-28T00:48:54;102922.81;;;1.58;100.00
42111;BME280;27766;52.174;5.456;2023-01-28T00:51:21;102932.19;;;1.68;100.00
42111;BME280;27766;52.174;5.456;2023-01-28T00:53:49;102938.97;;;1.67;100.00
42111;BME280;27766;52.174;5.456;2023-01-28T00:56:17;102936.66;;;1.70;100.00
42111;BME280;27766;52.174;5.456;2023-01-28T00:58:46;102943.06;;;1.76;100.00
42111;BME280;27766;52.174;5.456;2023-01-28T01:01:16;102937.41;;;1.69;100.00
42111;BME280;27766;52.174;5.456;2023-01-28T01:03:44;102931.00;;;1.64;100.00
42111;BME280;27766;52.174;5.456;2023-01-28T01:06:13;102928.34;;;1.63;100.00
42111;BME280;27766;52.174;5.456;2023-01-28T01:08:40;102920.16;;;1.56;100.00
42111;BME280;27766;52.174;5.456;2023-01-28T01:11:10;102924.63;;;1.59;100.00
42111;BME280;27766;52.174;5.456;2023-01-28T01:13:38;102919.63;;;1.61;100.00
42111;BME280;27766;52.174;5.456;2023-01-28T01:16:11;102928.06;;;1.60;100.00
42111;BME280;27766;52.174;5.456;2023-01-28T01:18:39;102928.06;;;1.60;100.00
42111;BME280;27766;52.174;5.456;2023-01-28T01:21:14;102931.00;;;1.64;100.00
42111;BME280;27766;52.174;5.456;2023-01-28T01:23:42;102922.94;;;1.60;100.00
42111;BME280;27766;52.174;5.456;2023-01-28T01:26:09;102927.81;;;1.67;100.00
42111;BME280;27766;52.174;5.456;2023-01-28T01:28:37;102924.88;;;1.62;100.00
42111;BME280;27766;52.174;5.456;2023-01-28T01:31:07;102925.78;;;1.63;100.00
42111;BME280;27766;52.174;5.456;2023-01-28T01:33:35;102924.63;;;1.59;100.00
42111;BME280;27766;52.174;5.456;2023-01-28T01:36:02;102931.63;;;1.62;100.00
42111;BME280;27766;52.174;5.456;2023-01-28T01:38:29;102933.56;;;1.64;100.00
42111;BME280;27766;52.174;5.456;2023-01-28T01:40:58;102931.13;;;1.66;100.00
42111;BME280;27766;52.174;5.456;2023-01-28T01:43:52;102945.69;;;1.67;100.00
42111;BME280;27766;52.174;5.456;2023-01-28T01:48:54;102942.50;;;1.59;100.00
42111;BME280;27766;52.174;5.456;2023-01-28T01:51:27;102953.22;;;1.65;100.00
42111;BME280;27766;52.174;5.456;2023-01-28T01:53:57;102944.53;;;1.63;100.00
42111;BME280;27766;52.174;5.456;2023-01-28T01:56:29;102949.97;;;1.57;100.00
42111;BME280;27766;52.174;5.456;2023-01-28T01:58:59;102944.88;;;1.57;100.00
42111;BME280;27766;52.174;5.456;2023-01-28T02:01:29;102948.34;;;1.58;100.00
42111;BME280;27766;52.174;5.456;2023-01-28T02:04:06;102948.22;;;1.56;100.00
42111;BME280;27766;52.174;5.456;2023-01-28T02:06:35;102957.66;;;1.57;100.00
42111;BME280;27766;52.174;5.456;2023-01-28T02:09:19;102961.00;;;1.56;100.00
42111;BME280;27766;52.174;5.456;2023-01-28T02:11:48;102967.09;;;1.58;100.00
42111;BME280;27766;52.174;5.456;2023-01-28T02:14:16;102956.88;;;1.58;100.00
42111;BME280;27766;52.174;5.456;2023-01-28T02:16:59;102960.34;;;1.59;100.00
42111;BME280;27766;52.174;5.456;2023-01-28T02:19:39;102949.97;;;1.57;100.00
42111;BME280;27766;52.174;5.456;2023-01-28T02:22:26;102951.16;;;1.61;100.00
42111;BME280;27766;52.174;5.456;2023-01-28T02:25:40;102953.31;;;1.56;100.00
42111;BME280;27766;52.174;5.456;2023-01-28T02:28:29;102959.81;;;1.53;100.00
42111;BME280;27766;52.174;5.456;2023-01-28T02:31:07;102956.63;;;1.55;100.00
42111;BME280;27766;52.174;5.456;2023-01-28T02:36:58;102959.66;;;1.51;100.00
42111;BME280;27766;52.174;5.456;2023-01-28T02:39:35;102958.78;;;1.51;100.00
42111;BME280;27766;52.174;5.456;2023-01-28T02:42:09;102960.69;;;1.53;100.00
42111;BME280;27766;52.174;5.456;2023-01-28T02:44:39;102955.59;;;1.53;100.00
42111;BME280;27766;52.174;5.456;2023-01-28T02:47:11;102972.59;;;1.53;100.00
42111;BME280;27766;52.174;5.456;2023-01-28T02:49:59;102964.50;;;1.48;100.00
42111;BME280;27766;52.174;5.456;2023-01-28T02:55:45;102971.13;;;1.46;100.00
42111;BME280;27766;52.174;5.456;2023-01-28T03:03:30;102957.53;;;1.37;100.00
42111;BME280;27766;52.174;5.456;2023-01-28T03:06:06;102945.69;;;1.37;100.00
42111;BME280;27766;52.174;5.456;2023-01-28T03:08:41;102947.81;;;1.33;100.00
42111;BME280;27766;52.174;5.456;2023-01-28T03:11:42;102946.28;;;1.35;100.00
42111;BME280;27766;52.174;5.456;2023-01-28T03:14:31;102955.31;;;1.31;100.00
42111;BME280;27766;52.174;5.456;2023-01-28T03:17:26;102941.91;;;1.23;100.00
42111;BME280;27766;52.174;5.456;2023-01-28T03:20:14;102951.34;;;1.24;100.00
42111;BME280;27766;52.174;5.456;2023-01-28T03:23:02;102957.47;;;1.26;100.00
42111;BME280;27766;52.174;5.456;2023-01-28T03:25:55;102955.94;;;1.29;100.00
42111;BME280;27766;52.174;5.456;2023-01-28T03:28:44;102960.00;;;1.26;100.00
42111;BME280;27766;52.174;5.456;2023-01-28T03:31:32;102950.00;;;1.19;100.00
42111;BME280;27766;52.174;5.456;2023-01-28T03:34:20;102961.06;;;1.29;100.00
42111;BME280;27766;52.174;5.456;2023-01-28T03:37:07;102952.09;;;1.23;100.00
42111;BME280;27766;52.174;5.456;2023-01-28T03:39:36;102958.72;;;1.21;100.00
42111;BME280;27766;52.174;5.456;2023-01-28T03:42:05;102957.19;;;1.23;100.00
42111;BME280;27766;52.174;5.456;2023-01-28T03:44:32;102962.31;;;1.23;100.00
42111;BME280;27766;52.174;5.456;2023-01-28T03:47:15;102950.00;;;1.19;100.00
42111;BME280;27766;52.174;5.456;2023-01-28T03:49:45;102961.81;;;1.27;100.00
42111;BME280;27766;52.174;5.456;2023-01-28T03:52:18;102967.66;;;1.26;100.00
42111;BME280;27766;52.174;5.456;2023-01-28T03:54:46;102963.34;;;1.25;100.00
42111;BME280;27766;52.174;5.456;2023-01-28T03:57:15;102952.19;;;1.15;100.00
42111;BME280;27766;52.174;5.456;2023-01-28T03:59:42;102950.00;;;1.19;100.00
42111;BME280;27766;52.174;5.456;2023-01-28T04:02:12;102951.13;;;1.13;100.00
42111;BME280;27766;52.174;5.456;2023-01-28T04:04:41;102964.16;;;1.16;100.00
42111;BME280;27766;52.174;5.456;2023-01-28T04:07:09;102961.47;;;1.14;100.00
42111;BME280;27766;52.174;5.456;2023-01-28T04:09:36;102964.72;;;1.22;100.00
42111;BME280;27766;52.174;5.456;2023-01-28T04:12:04;102966.09;;;1.18;100.00
42111;BME280;27766;52.174;5.456;2023-01-28T04:14:31;102973.47;;;1.15;100.00
42111;BME280;27766;52.174;5.456;2023-01-28T04:16:59;102969.88;;;1.13;100.00
42111;BME280;27766;52.174;5.456;2023-01-28T04:19:26;102972.44;;;1.13;100.00
42111;BME280;27766;52.174;5.456;2023-01-28T04:21:54;102973.97;;;1.11;100.00
42111;BME280;27766;52.174;5.456;2023-01-28T04:24:22;102981.75;;;1.13;100.00
42111;BME280;27766;52.174;5.456;2023-01-28T04:26:50;102983.38;;;1.12;100.00
42111;BME280;27766;52.174;5.456;2023-01-28T04:29:17;102991.47;;;1.17;100.00
42111;BME280;27766;52.174;5.456;2023-01-28T04:31:44;102990.16;;;1.12;100.00
42111;BME280;27766;52.174;5.456;2023-01-28T04:34:11;102985.06;;;1.12;100.00
42111;BME280;27766;52.174;5.456;2023-01-28T04:36:38;102996.56;;;1.17;100.00
42111;BME280;27766;52.174;5.456;2023-01-28T04:39:05;102992.16;;;1.05;100.00
42111;BME280;27766;52.174;5.456;2023-01-28T04:41:32;102998.44;;;1.09;100.00
42111;BME280;27766;52.174;5.456;2023-01-28T04:43:59;102980.41;;;1.07;100.00
42111;BME280;27766;52.174;5.456;2023-01-28T04:46:27;102985.50;;;1.07;100.00
42111;BME280;27766;52.174;5.456;2023-01-28T04:48:54;102991.53;;;1.08;100.00
42111;BME280;27766;52.174;5.456;2023-01-28T04:51:21;102990.47;;;1.06;100.00
42111;BME280;27766;52.174;5.456;2023-01-28T04:53:48;102986.28;;;1.06;100.00
42111;BME280;27766;52.174;5.456;2023-01-28T04:56:15;102964.56;;;1.01;100.00
42111;BME280;27766;52.174;5.456;2023-01-28T04:58:42;102981.03;;;1.05;100.00
42111;BME280;27766;52.174;5.456;2023-01-28T05:01:09;102967.53;;;1.06;100.00
42111;BME280;27766;52.174;5.456;2023-01-28T05:03:37;102964.97;;;1.06;100.00
42111;BME280;27766;52.174;5.456;2023-01-28T05:06:04;102971.41;;;1.11;100.00
42111;BME280;27766;52.174;5.456;2023-01-28T05:08:31;102978.16;;;1.10;100.00
42111;BME280;27766;52.174;5.456;2023-01-28T05:10:58;102970.50;;;1.10;100.00
42111;BME280;27766;52.174;5.456;2023-01-28T05:13:25;102972.91;;;1.09;100.00
42111;BME280;27766;52.174;5.456;2023-01-28T05:15:52;102961.88;;;1.00;100.00
42111;BME280;27766;52.174;5.456;2023-01-28T05:18:20;102967.66;;;1.07;100.00
42111;BME280;27766;52.174;5.456;2023-01-28T05:20:47;102971.75;;;1.05;100.00
42111;BME280;27766;52.174;5.456;2023-01-28T05:23:15;102971.59;;;1.04;100.00
42111;BME280;27766;52.174;5.456;2023-01-28T05:25:42;102972.81;;;0.99;100.00
42111;BME280;27766;52.174;5.456;2023-01-28T05:28:09;102969.41;;;0.98;100.00
42111;BME280;27766;52.174;5.456;2023-01-28T05:30:37;102969.09;;;0.95;100.00
42111;BME280;27766;52.174;5.456;2023-01-28T05:33:04;102977.50;;;0.94;100.00
42111;BME280;27766;52.174;5.456;2023-01-28T05:35:32;102984.41;;;0.95;100.00
42111;BME280;27766;52.174;5.456;2023-01-28T05:37:59;102987.25;;;0.98;100.00
42111;BME280;27766;52.174;5.456;2023-01-28T05:40:26;102978.56;;;0.96;100.00
42111;BME280;27766;52.174;5.456;2023-01-28T05:42:53;102973.31;;;0.94;100.00
42111;BME280;27766;52.174;5.456;2023-01-28T05:45:20;102974.19;;;0.95;100.00
42111;BME280;27766;52.174;5.456;2023-01-28T05:47:48;102966.47;;;0.85;100.00
42111;BME280;27766;52.174;5.456;2023-01-28T05:50:15;102968.25;;;0.86;100.00
42111;BME280;27766;52.174;5.456;2023-01-28T05:52:43;102972.72;;;0.88;100.00
42111;BME280;27766;52.174;5.456;2023-01-28T05:55:11;102977.84;;;0.88;100.00
42111;BME280;27766;52.174;5.456;2023-01-28T05:57:38;102969.44;;;0.89;100.00
42111;BME280;27766;52.174;5.456;2023-01-28T06:00:06;102976.34;;;0.90;100.00
42111;BME280;27766;52.174;5.456;2023-01-28T06:02:33;102971.72;;;0.86;100.00
42111;BME280;27766;52.174;5.456;2023-01-28T06:05:00;102967.78;;;0.90;100.00
42111;BME280;27766;52.174;5.456;2023-01-28T06:07:28;102968.25;;;0.86;100.00
42111;BME280;27766;52.174;5.456;2023-01-28T06:09:55;102975.56;;;0.91;100.00
42111;BME280;27766;52.174;5.456;2023-01-28T06:12:22;102973.94;;;0.92;100.00
42111;BME280;27766;52.174;5.456;2023-01-28T06:14:49;102964.06;;;0.86;100.00
42111;BME280;27766;52.174;5.456;2023-01-28T06:17:16;102979.03;;;0.92;100.00
42111;BME280;27766;52.174;5.456;2023-01-28T06:19:43;102983.72;;;0.87;100.00
42111;BME280;27766;52.174;5.456;2023-01-28T06:22:10;102971.91;;;0.79;100.00
42111;BME280;27766;52.174;5.456;2023-01-28T06:24:38;102973.97;;;0.83;100.00
42111;BME280;27766;52.174;5.456;2023-01-28T06:27:05;102976.25;;;0.80;100.00
42111;BME280;27766;52.174;5.456;2023-01-28T06:29:32;102984.03;;;0.82;100.00
42111;BME280;27766;52.174;5.456;2023-01-28T06:31:59;102970.13;;;0.78;100.00
42111;BME280;27766;52.174;5.456;2023-01-28T06:34:29;102982.88;;;0.78;100.00
42111;BME280;27766;52.174;5.456;2023-01-28T06:36:56;102991.13;;;0.75;100.00
42111;BME280;27766;52.174;5.456;2023-01-28T06:39:23;102996.41;;;0.68;100.00
42111;BME280;27766;52.174;5.456;2023-01-28T06:41:52;103000.91;;;0.71;100.00
42111;BME280;27766;52.174;5.456;2023-01-28T06:44:20;102981.00;;;0.58;100.00
42111;BME280;27766;52.174;5.456;2023-01-28T06:46:48;102986.41;;;0.61;100.00
42111;BME280;27766;52.174;5.456;2023-01-28T06:49:15;103003.16;;;0.68;100.00
42111;BME280;27766;52.174;5.456;2023-01-28T06:51:42;102998.19;;;0.69;100.00
42111;BME280;27766;52.174;5.456;2023-01-28T06:54:10;103004.09;;;0.59;100.00
42111;BME280;27766;52.174;5.456;2023-01-28T06:56:37;103011.47;;;0.56;100.00
42111;BME280;27766;52.174;5.456;2023-01-28T06:59:04;103016.69;;;0.58;100.00
42111;BME280;27766;52.174;5.456;2023-01-28T07:01:31;103028.25;;;0.54;100.00
42111;BME280;27766;52.174;5.456;2023-01-28T07:03:59;103021.66;;;0.56;100.00
42111;BME280;27766;52.174;5.456;2023-01-28T07:06:26;103005.03;;;0.51;100.00
42111;BME280;27766;52.174;5.456;2023-01-28T07:08:53;103018.06;;;0.54;100.00
42111;BME280;27766;52.174;5.456;2023-01-28T07:11:21;103019.56;;;0.52;100.00
42111;BME280;27766;52.174;5.456;2023-01-28T07:13:48;103009.09;;;0.49;100.00
42111;BME280;27766;52.174;5.456;2023-01-28T07:16:16;103019.13;;;0.56;100.00
42111;BME280;27766;52.174;5.456;2023-01-28T07:18:43;103014.94;;;0.48;100.00
42111;BME280;27766;52.174;5.456;2023-01-28T07:21:10;103028.25;;;0.54;100.00
42111;BME280;27766;52.174;5.456;2023-01-28T07:23:37;103019.88;;;0.55;100.00
42111;BME280;27766;52.174;5.456;2023-01-28T07:26:05;103025.72;;;0.54;100.00
42111;BME280;27766;52.174;5.456;2023-01-28T07:28:33;103021.34;;;0.53;100.00
42111;BME280;27766;52.174;5.456;2023-01-28T07:31:00;103016.69;;;0.58;100.00
42111;BME280;27766;52.174;5.456;2023-01-28T07:33:27;103018.94;;;0.55;100.00
42111;BME280;27766;52.174;5.456;2023-01-28T07:35:54;103030.50;;;0.51;100.00
42111;BME280;27766;52.174;5.456;2023-01-28T07:38:22;103042.63;;;0.54;100.00
42111;BME280;27766;52.174;5.456;2023-01-28T07:40:49;103043.41;;;0.53;100.00
42111;BME280;27766;52.174;5.456;2023-01-28T07:43:16;103030.84;;;0.45;100.00
42111;BME280;27766;52.174;5.456;2023-01-28T07:45:43;103040.88;;;0.44;100.00
42111;BME280;27766;52.174;5.456;2023-01-28T07:48:14;103051.22;;;0.45;100.00
42111;BME280;27766;52.174;5.456;2023-01-28T07:50:41;103042.38;;;0.51;100.00
42111;BME280;27766;52.174;5.456;2023-01-28T07:53:10;103041.75;;;0.53;100.00
42111;BME280;27766;52.174;5.456;2023-01-28T07:55:38;103042.06;;;0.56;100.00
42111;BME280;27766;52.174;5.456;2023-01-28T07:58:07;103043.84;;;0.57;100.00
42111;BME280;27766;52.174;5.456;2023-01-28T08:00:35;103046.66;;;0.60;100.00
42111;BME280;27766;52.174;5.456;2023-01-28T08:03:10;103043.38;;;0.61;100.00
42111;BME280;27766;52.174;5.456;2023-01-28T08:05:45;103033.06;;;0.51;100.00
42111;BME280;27766;52.174;5.456;2023-01-28T08:08:13;103048.78;;;0.65;100.00
42111;BME280;27766;52.174;5.456;2023-01-28T08:10:40;103052.34;;;0.67;100.00
42111;BME280;27766;52.174;5.456;2023-01-28T08:13:11;103047.22;;;0.67;100.00
42111;BME280;27766;52.174;5.456;2023-01-28T08:15:38;103039.78;;;0.59;100.00
42111;BME280;27766;52.174;5.456;2023-01-28T08:18:08;103055.63;;;0.66;100.00
42111;BME280;27766;52.174;5.456;2023-01-28T08:20:36;103054.00;;;0.66;100.00
42111;BME280;27766;52.174;5.456;2023-01-28T08:23:07;103059.38;;;0.69;100.00
42111;BME280;27766;52.174;5.456;2023-01-28T08:25:35;103061.03;;;0.69;100.00
42111;BME280;27766;52.174;5.456;2023-01-28T08:28:03;103061.16;;;0.70;100.00
42111;BME280;27766;52.174;5.456;2023-01-28T08:30:31;103052.63;;;0.70;100.00
42111;BME280;27766;52.174;5.456;2023-01-28T08:32:59;103068.19;;;0.73;100.00
42111;BME280;27766;52.174;5.456;2023-01-28T08:35:27;103059.53;;;0.71;100.00
42111;BME280;27766;52.174;5.456;2023-01-28T08:37:54;103066.25;;;0.70;100.00
42111;BME280;27766;52.174;5.456;2023-01-28T08:40:22;103063.88;;;0.72;100.00
42111;BME280;27766;52.174;5.456;2023-01-28T08:42:50;103066.69;;;0.75;100.00
42111;BME280;27766;52.174;5.456;2023-01-28T08:45:19;103065.66;;;0.73;100.00
42111;BME280;27766;52.174;5.456;2023-01-28T08:47:54;103076.28;;;0.77;100.00
42111;BME280;27766;52.174;5.456;2023-01-28T08:50:22;103073.59;;;0.76;100.00
42111;BME280;27766;52.174;5.456;2023-01-28T08:53:00;103084.66;;;0.85;100.00
42111;BME280;27766;52.174;5.456;2023-01-28T08:55:28;103086.47;;;0.86;100.00
42111;BME280;27766;52.174;5.456;2023-01-28T08:57:55;103096.94;;;0.89;100.00
42111;BME280;27766;52.174;5.456;2023-01-28T09:00:24;103088.72;;;0.83;100.00
42111;BME280;27766;52.174;5.456;2023-01-28T09:02:52;103100.41;;;0.90;100.00
42111;BME280;27766;52.174;5.456;2023-01-28T09:05:20;103093.63;;;0.90;100.00
42111;BME280;27766;52.174;5.456;2023-01-28T09:07:50;103087.47;;;0.88;100.00
42111;BME280;27766;52.174;5.456;2023-01-28T09:10:18;103084.19;;;0.89;100.00
42111;BME280;27766;52.174;5.456;2023-01-28T09:12:46;103086.72;;;0.98;100.00
42111;BME280;27766;52.174;5.456;2023-01-28T09:15:14;103079.94;;;0.99;100.00
42111;BME280;27766;52.174;5.456;2023-01-28T09:17:41;103108.31;;;1.02;100.00
42111;BME280;27766;52.174;5.456;2023-01-28T09:20:08;103114.28;;;1.02;100.00
42111;BME280;27766;52.174;5.456;2023-01-28T09:22:37;103105.25;;;1.06;100.00
42111;BME280;27766;52.174;5.456;2023-01-28T09:25:04;103112.91;;;1.06;100.00
42111;BME280;27766;52.174;5.456;2023-01-28T09:27:31;103120.00;;;1.00;100.00
42111;BME280;27766;52.174;5.456;2023-01-28T09:29:58;103119.53;;;1.04;100.00
42111;BME280;27766;52.174;5.456;2023-01-28T09:32:25;103107.81;;;1.06;100.00
42111;BME280;27766;52.174;5.456;2023-01-28T09:34:53;103110.66;;;1.09;100.00
42111;BME280;27766;52.174;5.456;2023-01-28T09:37:23;103126.66;;;1.17;100.00
42111;BME280;27766;52.174;5.456;2023-01-28T09:39:50;103131.94;;;1.18;100.00
42111;BME280;27766;52.174;5.456;2023-01-28T09:47:46;103120.81;;;1.18;100.00
42111;BME280;27766;52.174;5.456;2023-01-28T09:50:19;103122.56;;;1.27;100.00
42111;BME280;27766;52.174;5.456;2023-01-28T09:52:51;103114.16;;;1.29;100.00
42111;BME280;27766;52.174;5.456;2023-01-28T09:55:30;103115.25;;;1.22;100.00
42111;BME280;27766;52.174;5.456;2023-01-28T09:57:58;103111.53;;;1.09;100.00
42111;BME280;27766;52.174;5.456;2023-01-28T10:00:50;103131.34;;;1.12;100.00
42111;BME280;27766;52.174;5.456;2023-01-28T10:09:13;103137.69;;;1.07;100.00
42111;BME280;27766;52.174;5.456;2023-01-28T10:17:30;103131.94;;;1.09;100.00
42111;BME280;27766;52.174;5.456;2023-01-28T10:20:06;103138.25;;;1.13;100.00
42111;BME280;27766;52.174;5.456;2023-01-28T10:22:45;103109.47;;;1.05;100.00
42111;BME280;27766;52.174;5.456;2023-01-28T10:25:18;103118.00;;;1.15;100.00
42111;BME280;27766;52.174;5.456;2023-01-28T10:27:47;103111.53;;;1.18;100.00
42111;BME280;27766;52.174;5.456;2023-01-28T10:30:21;103114.47;;;1.23;100.00
42111;BME280;27766;52.174;5.456;2023-01-28T10:32:50;103114.16;;;1.29;100.00
42111;BME280;27766;52.174;5.456;2023-01-28T10:35:20;103110.97;;;1.31;100.00
42111;BME280;27766;52.174;5.456;2023-01-28T10:37:48;103105.75;;;1.30;100.00
42111;BME280;27766;52.174;5.456;2023-01-28T10:40:18;103113.19;;;1.37;100.00
42111;BME280;27766;52.174;5.456;2023-01-28T10:42:45;103112.94;;;1.34;100.00
42111;BME280;27766;52.174;5.456;2023-01-28T10:45:53;103095.06;;;1.34;100.00
42111;BME280;27766;52.174;5.456;2023-01-28T10:48:28;103095.75;;;1.41;100.00
42111;BME280;27766;52.174;5.456;2023-01-28T10:50:58;103095.00;;;1.42;100.00
42111;BME280;27766;52.174;5.456;2023-01-28T10:53:39;103090.66;;;1.41;100.00
42111;BME280;27766;52.174;5.456;2023-01-28T12:44:18;103006.75;;;2.83;100.00
42111;BME280;27766;52.174;5.456;2023-01-28T12:46:57;103004.81;;;2.91;100.00
42111;BME280;27766;52.174;5.456;2023-01-28T12:49:47;102997.41;;;2.94;100.00
42111;BME280;27766;52.174;5.456;2023-01-28T12:52:27;102977.53;;;2.91;100.00
42111;BME280;27766;52.174;5.456;2023-01-28T12:57:34;102977.69;;;3.03;100.00
42111;BME280;27766;52.174;5.456;2023-01-28T13:02:38;102963.75;;;2.99;100.00
42111;BME280;27766;52.174;5.456;2023-01-28T13:07:50;102942.00;;;2.94;100.00
42111;BME280;27766;52.174;5.456;2023-01-28T13:10:25;102929.59;;;2.89;100.00
42111;BME280;27766;52.174;5.456;2023-01-28T13:12:54;102926.16;;;2.98;100.00
42111;BME280;27766;52.174;5.456;2023-01-28T13:15:23;102929.06;;;3.13;100.00
42111;BME280;27766;52.174;5.456;2023-01-28T13:17:58;102932.66;;;3.15;100.00
42111;BME280;27766;52.174;5.456;2023-01-28T13:23:01;102943.50;;;3.23;100.00
42111;BME280;27766;52.174;5.456;2023-01-28T13:25:32;102942.72;;;3.24;100.00
42111;BME280;27766;52.174;5.456;2023-01-28T13:28:05;102935.44;;;3.29;100.00
42111;BME280;27766;52.174;5.456;2023-01-28T13:30:34;102921.22;;;3.32;100.00
42111;BME280;27766;52.174;5.456;2023-01-28T13:33:05;102925.56;;;3.33;100.00
42111;BME280;27766;52.174;5.456;2023-01-28T13:35:34;102926.16;;;3.41;100.00
42111;BME280;27766;52.174;5.456;2023-01-28T13:38:07;102935.66;;;3.42;100.00
42111;BME280;27766;52.174;5.456;2023-01-28T13:40:37;102941.13;;;3.47;100.00
42111;BME280;27766;52.174;5.456;2023-01-28T13:43:35;102945.38;;;3.46;100.00
42111;BME280;27766;52.174;5.456;2023-01-28T13:46:12;102939.03;;;3.31;100.00
42111;BME280;27766;52.174;5.456;2023-01-28T13:48:51;102943.38;;;3.32;100.00
42111;BME280;27766;52.174;5.456;2023-01-28T13:51:30;102927.38;;;3.24;100.00
42111;BME280;27766;52.174;5.456;2023-01-28T13:54:06;102933.78;;;3.19;100.00
42111;BME280;27766;52.174;5.456;2023-01-28T14:16:40;102973.28;;;3.43;100.00
42111;BME280;27766;52.174;5.456;2023-01-28T14:19:12;102971.25;;;3.39;100.00
42111;BME280;27766;52.174;5.456;2023-01-28T14:27:13;102949.19;;;3.52;100.00
42111;BME280;27766;52.174;5.456;2023-01-28T14:33:31;102945.03;;;3.64;100.00
42111;BME280;27766;52.174;5.456;2023-01-28T14:35:59;102946.44;;;3.71;100.00
42111;BME280;27766;52.174;5.456;2023-01-28T14:38:26;102948.97;;;3.81;100.00
42111;BME280;27766;52.174;5.456;2023-01-28T14:40:54;102931.81;;;3.80;100.00
42111;BME280;27766;52.174;5.456;2023-01-28T14:43:24;102947.78;;;3.88;100.00
42111;BME280;27766;52.174;5.456;2023-01-28T14:48:47;102948.31;;;3.84;100.00
42111;BME280;27766;52.174;5.456;2023-01-28T14:59:53;102957.28;;;4.11;100.00
42111;BME280;27766;52.174;5.456;2023-01-28T15:02:25;102962.38;;;4.21;100.00
42111;BME280;27766;52.174;5.456;2023-01-28T15:04:53;102968.63;;;4.25;100.00
42111;BME280;27766;52.174;5.456;2023-01-28T15:08:21;102962.19;;;4.30;100.00
42111;BME280;27766;52.174;5.456;2023-01-28T15:10:52;102961.34;;;4.19;100.00
42111;BME280;27766;52.174;5.456;2023-01-28T15:13:25;102970.41;;;4.04;100.00
42111;BME280;27766;52.174;5.456;2023-01-28T15:15:53;102973.75;;;3.92;100.00
42111;BME280;27766;52.174;5.456;2023-01-28T15:18:28;102987.41;;;3.81;100.00
42111;BME280;27766;52.174;5.456;2023-01-28T15:20:56;102988.97;;;3.69;100.00
42111;BME280;27766;52.174;5.456;2023-01-28T15:23:42;102999.09;;;3.57;100.00
42111;BME280;27766;52.174;5.456;2023-01-28T15:28:42;102996.09;;;3.40;100.00
42111;BME280;27766;52.174;5.456;2023-01-28T15:31:20;102996.72;;;3.38;100.00
42111;BME280;27766;52.174;5.456;2023-01-28T15:34:02;102981.88;;;3.23;100.00
42111;BME280;27766;52.174;5.456;2023-01-28T15:36:30;102981.50;;;3.19;100.00
42111;BME280;27766;52.174;5.456;2023-01-28T15:38:57;102979.09;;;3.10;100.00
42111;BME280;27766;52.174;5.456;2023-01-28T15:41:32;102966.81;;;3.06;100.00
42111;BME280;27766;52.174;5.456;2023-01-28T15:44:01;102954.69;;;2.93;100.00
42111;BME280;27766;52.174;5.456;2023-01-28T15:46:30;102960.81;;;2.95;100.00
42111;BME280;27766;52.174;5.456;2023-01-28T15:49:02;102964.91;;;2.93;100.00
42111;BME280;27766;52.174;5.456;2023-01-28T15:51:31;102961.31;;;2.91;100.00
42111;BME280;27766;52.174;5.456;2023-01-28T15:54:03;102974.09;;;2.91;100.00
42111;BME280;27766;52.174;5.456;2023-01-28T15:56:31;102991.25;;;2.92;100.00
42111;BME280;27766;52.174;5.456;2023-01-28T15:59:28;102983.84;;;2.95;100.00
42111;BME280;27766;52.174;5.456;2023-01-28T16:02:24;102983.19;;;2.97;100.00
42111;BME280;27766;52.174;5.456;2023-01-28T16:05:03;102996.88;;;2.98;100.00
42111;BME280;27766;52.174;5.456;2023-01-28T16:07:32;102997.63;;;2.97;100.00
42111;BME280;27766;52.174;5.456;2023-01-28T16:10:01;102989.19;;;2.98;100.00
42111;BME280;27766;52.174;5.456;2023-01-28T16:12:29;102982.28;;;2.97;100.00
42111;BME280;27766;52.174;5.456;2023-01-28T16:15:00;102971.66;;;2.92;100.00
42111;BME280;27766;52.174;5.456;2023-01-28T16:17:29;102985.63;;;2.96;100.00
42111;BME280;27766;52.174;5.456;2023-01-28T16:20:00;102986.66;;;2.98;100.00
42111;BME280;27766;52.174;5.456;2023-01-28T16:22:34;102987.69;;;3.00;100.00
42111;BME280;27766;52.174;5.456;2023-01-28T16:25:25;102987.69;;;3.00;100.00